sensor_id;sensor_type;location;lat;lon;timestamp;pressure;altitude;pressure_sealevel;temperature;humidity
55291;BME280;41155;39.768;2.712;2023-02-21T00:01:08;102013.31;;;10.24;68.86
55291;BME280;41155;39.768;2.712;2023-02-21T00:03:52;102014.97;;;10.25;69.00
55291;BME280;41155;39.768;2.712;2023-02-21T00:06:36;102001.91;;;10.22;68.64
55291;BME280;41155;39.768;2.712;2023-02-21T00:09:20;101966.56;;;9.92;68.58
55291;BME280;41155;39.768;2.712;2023-02-21T00:12:04;101993.03;;;10.08;68.70
55291;BME280;41155;39.768;2.712;2023-02-21T00:14:48;101975.88;;;9.96;68.35
55291;BME280;41155;39.768;2.712;2023-02-21T00:17:31;102003.41;;;10.11;68.76
55291;BME280;41155;39.768;2.712;2023-02-21T00:20:15;101984.75;;;10.03;68.72
55291;BME280;41155;39.768;2.712;2023-02-21T00:22:59;102000.94;;;10.10;68.44
55291;BME280;41155;39.768;2.712;2023-02-21T00:25:43;101989.56;;;10.01;68.51
55291;BME280;41155;39.768;2.712;2023-02-21T00:28:27;102008.38;;;10.14;68.06
55291;BME280;41155;39.768;2.712;2023-02-21T00:31:11;101970.31;;;9.91;68.19
55291;BME280;41155;39.768;2.712;2023-02-21T00:33:55;102001.56;;;10.05;68.43
55291;BME280;41155;39.768;2.712;2023-02-21T00:36:39;102006.34;;;10.03;68.60
55291;BME280;41155;39.768;2.712;2023-02-21T00:39:23;102002.44;;;9.99;68.20
55291;BME280;41155;39.768;2.712;2023-02-21T00:42:07;101985.25;;;9.93;68.30
55291;BME280;41155;39.768;2.712;2023-02-21T00:44:51;101999.31;;;10.02;68.56
55291;BME280;41155;39.768;2.712;2023-02-21T00:47:35;102001.78;;;10.04;68.51
55291;BME280;41155;39.768;2.712;2023-02-21T00:50:19;102000.38;;;10.01;68.06
55291;BME280;41155;39.768;2.712;2023-02-21T00:53:03;101999.50;;;10.01;68.22
55291;BME280;41155;39.768;2.712;2023-02-21T00:55:47;101996.81;;;10.07;67.49
55291;BME280;41155;39.768;2.712;2023-02-21T00:58:31;101991.84;;;9.98;67.98
55291;BME280;41155;39.768;2.712;2023-02-21T01:01:15;101988.56;;;9.95;67.98
55291;BME280;41155;39.768;2.712;2023-02-21T01:03:59;101986.06;;;9.94;68.43
55291;BME280;41155;39.768;2.712;2023-02-21T01:06:43;101952.34;;;9.71;68.68
55291;BME280;41155;39.768;2.712;2023-02-21T01:09:27;101974.06;;;9.90;68.92
55291;BME280;41155;39.768;2.712;2023-02-21T01:12:11;101963.03;;;9.91;68.67
55291;BME280;41155;39.768;2.712;2023-02-21T01:14:55;101960.19;;;9.80;68.72
55291;BME280;41155;39.768;2.712;2023-02-21T01:17:39;101974.25;;;9.88;68.60
55291;BME280;41155;39.768;2.712;2023-02-21T01:20:23;101959.56;;;9.84;68.40
55291;BME280;41155;39.768;2.712;2023-02-21T01:23:07;101946.09;;;9.78;68.00
55291;BME280;41155;39.768;2.712;2023-02-21T01:25:51;101965.16;;;9.83;68.20
55291;BME280;41155;39.768;2.712;2023-02-21T01:28:35;101955.22;;;9.77;68.49
55291;BME280;41155;39.768;2.712;2023-02-21T01:31:20;101972.00;;;9.85;68.20
55291;BME280;41155;39.768;2.712;2023-02-21T01:34:04;101959.56;;;9.84;68.02
55291;BME280;41155;39.768;2.712;2023-02-21T01:36:48;101967.47;;;9.79;67.94
55291;BME280;41155;39.768;2.712;2023-02-21T01:39:32;101967.09;;;9.69;67.39
55291;BME280;41155;39.768;2.712;2023-02-21T01:42:16;101964.66;;;9.61;68.34
55291;BME280;41155;39.768;2.712;2023-02-21T01:45:43;101964.03;;;9.59;68.35
55291;BME280;41155;39.768;2.712;2023-02-21T01:48:29;101932.56;;;9.46;68.79
55291;BME280;41155;39.768;2.712;2023-02-21T01:51:18;101943.09;;;9.54;68.92
55291;BME280;41155;39.768;2.712;2023-02-21T01:54:04;101935.66;;;9.49;68.62
55291;BME280;41155;39.768;2.712;2023-02-21T01:56:50;101933.31;;;9.66;68.19
55291;BME280;41155;39.768;2.712;2023-02-21T01:59:34;101928.59;;;9.48;68.00
55291;BME280;41155;39.768;2.712;2023-02-21T02:05:37;101898.19;;;9.35;68.63
55291;BME280;41155;39.768;2.712;2023-02-21T02:08:26;101926.13;;;9.47;68.86
55291;BME280;41155;39.768;2.712;2023-02-21T02:14:42;101951.22;;;9.47;69.56
55291;BME280;41155;39.768;2.712;2023-02-21T02:25:27;101943.06;;;9.09;70.71
55291;BME280;41155;39.768;2.712;2023-02-21T02:36:38;101912.00;;;8.93;70.22
55291;BME280;41155;39.768;2.712;2023-02-21T02:39:23;101926.28;;;9.07;69.75
55291;BME280;41155;39.768;2.712;2023-02-21T02:42:06;101927.91;;;9.15;70.28
55291;BME280;41155;39.768;2.712;2023-02-21T02:45:04;101928.28;;;9.25;69.51
55291;BME280;41155;39.768;2.712;2023-02-21T02:47:35;101924.13;;;9.29;69.42
55291;BME280;41155;39.768;2.712;2023-02-21T02:50:04;101918.31;;;9.25;69.81
55291;BME280;41155;39.768;2.712;2023-02-21T02:52:31;101941.16;;;9.23;69.61
55291;BME280;41155;39.768;2.712;2023-02-21T02:54:58;101927.28;;;9.13;70.18
55291;BME280;41155;39.768;2.712;2023-02-21T02:57:25;101928.13;;;9.07;69.80
55291;BME280;41155;39.768;2.712;2023-02-21T02:59:52;101924.06;;;8.77;70.59
55291;BME280;41155;39.768;2.712;2023-02-21T03:05:42;101890.31;;;8.62;70.71
55291;BME280;41155;39.768;2.712;2023-02-21T03:11:09;101964.66;;;8.63;71.85
55291;BME280;41155;39.768;2.712;2023-02-21T03:16:32;101920.56;;;8.57;71.31
55291;BME280;41155;39.768;2.712;2023-02-21T03:19:15;101919.31;;;8.66;70.88
55291;BME280;41155;39.768;2.712;2023-02-21T03:21:55;101942.06;;;8.83;71.46
55291;BME280;41155;39.768;2.712;2023-02-21T03:24:24;101941.84;;;8.92;71.50
55291;BME280;41155;39.768;2.712;2023-02-21T03:26:55;101926.91;;;8.96;71.36
55291;BME280;41155;39.768;2.712;2023-02-21T03:29:21;101926.72;;;8.97;70.87
55291;BME280;41155;39.768;2.712;2023-02-21T03:31:50;101910.97;;;8.94;70.61
55291;BME280;41155;39.768;2.712;2023-02-21T03:34:19;101909.28;;;9.07;70.75
55291;BME280;41155;39.768;2.712;2023-02-21T03:36:45;101928.31;;;9.18;70.13
55291;BME280;41155;39.768;2.712;2023-02-21T03:39:11;101902.84;;;9.08;70.19
55291;BME280;41155;39.768;2.712;2023-02-21T03:41:36;101920.00;;;9.20;69.97
55291;BME280;41155;39.768;2.712;2023-02-21T03:44:02;101909.66;;;9.17;70.20
55291;BME280;41155;39.768;2.712;2023-02-21T03:46:27;101891.25;;;9.07;69.60
55291;BME280;41155;39.768;2.712;2023-02-21T03:48:53;101919.41;;;9.18;69.67
55291;BME280;41155;39.768;2.712;2023-02-21T03:51:18;101911.75;;;9.08;69.68
55291;BME280;41155;39.768;2.712;2023-02-21T03:53:44;101898.97;;;8.97;69.75
55291;BME280;41155;39.768;2.712;2023-02-21T03:56:09;101918.81;;;9.02;69.83
55291;BME280;41155;39.768;2.712;2023-02-21T03:58:35;101879.72;;;8.73;69.93
55291;BME280;41155;39.768;2.712;2023-02-21T04:01:00;101903.94;;;8.87;69.91
55291;BME280;41155;39.768;2.712;2023-02-21T04:03:26;101905.41;;;8.82;70.38
55291;BME280;41155;39.768;2.712;2023-02-21T04:05:51;101916.78;;;8.85;70.74
55291;BME280;41155;39.768;2.712;2023-02-21T04:08:17;101896.53;;;8.69;70.67
55291;BME280;41155;39.768;2.712;2023-02-21T04:10:42;101898.97;;;8.83;70.77
55291;BME280;41155;39.768;2.712;2023-02-21T04:13:08;101902.94;;;8.74;70.52
55291;BME280;41155;39.768;2.712;2023-02-21T04:15:34;101909.34;;;8.80;70.30
55291;BME280;41155;39.768;2.712;2023-02-21T04:18:00;101898.16;;;8.83;70.42
55291;BME280;41155;39.768;2.712;2023-02-21T04:20:25;101903.91;;;8.93;69.73
55291;BME280;41155;39.768;2.712;2023-02-21T04:22:51;101891.91;;;8.89;70.29
55291;BME280;41155;39.768;2.712;2023-02-21T04:25:16;101893.16;;;9.00;70.47
55291;BME280;41155;39.768;2.712;2023-02-21T04:27:42;101891.88;;;9.02;70.12
55291;BME280;41155;39.768;2.712;2023-02-21T04:30:08;101905.75;;;8.99;70.25
55291;BME280;41155;39.768;2.712;2023-02-21T04:32:33;101893.56;;;8.97;70.15
55291;BME280;41155;39.768;2.712;2023-02-21T04:34:59;101876.59;;;8.83;70.47
55291;BME280;41155;39.768;2.712;2023-02-21T04:37:24;101895.63;;;8.95;70.30
55291;BME280;41155;39.768;2.712;2023-02-21T04:39:50;101890.44;;;8.93;69.98
55291;BME280;41155;39.768;2.712;2023-02-21T04:42:15;101900.84;;;8.83;69.92
55291;BME280;41155;39.768;2.712;2023-02-21T04:44:41;101885.31;;;8.78;70.38
55291;BME280;41155;39.768;2.712;2023-02-21T04:47:06;101886.53;;;8.89;70.27
55291;BME280;41155;39.768;2.712;2023-02-21T04:49:32;101841.25;;;8.59;70.46
55291;BME280;41155;39.768;2.712;2023-02-21T04:51:57;101869.16;;;8.78;70.16
55291;BME280;41155;39.768;2.712;2023-02-21T04:54:23;101893.78;;;8.82;70.07
55291;BME280;41155;39.768;2.712;2023-02-21T04:56:48;101896.47;;;8.82;70.43
55291;BME280;41155;39.768;2.712;2023-02-21T04:59:15;101854.28;;;8.56;70.29
55291;BME280;41155;39.768;2.712;2023-02-21T05:01:40;101879.50;;;8.81;70.28
55291;BME280;41155;39.768;2.712;2023-02-21T05:04:06;101846.41;;;8.61;70.34
55291;BME280;41155;39.768;2.712;2023-02-21T05:06:32;101876.38;;;8.91;69.85
55291;BME280;41155;39.768;2.712;2023-02-21T05:08:58;101865.81;;;8.76;70.57
55291;BME280;41155;39.768;2.712;2023-02-21T05:11:27;101868.72;;;8.88;69.95
55291;BME280;41155;39.768;2.712;2023-02-21T05:13:53;101865.00;;;8.76;70.65
55291;BME280;41155;39.768;2.712;2023-02-21T05:16:19;101843.72;;;8.61;70.23
55291;BME280;41155;39.768;2.712;2023-02-21T05:18:46;101877.66;;;8.75;70.82
55291;BME280;41155;39.768;2.712;2023-02-21T05:21:14;101837.72;;;8.52;70.79
55291;BME280;41155;39.768;2.712;2023-02-21T05:23:40;101868.31;;;8.78;70.59
55291;BME280;41155;39.768;2.712;2023-02-21T05:26:09;101868.31;;;8.78;69.91
55291;BME280;41155;39.768;2.712;2023-02-21T05:28:36;101817.25;;;8.45;70.32
55291;BME280;41155;39.768;2.712;2023-02-21T05:31:05;101829.88;;;8.51;70.83
55291;BME280;41155;39.768;2.712;2023-02-21T05:33:31;101824.91;;;8.41;70.96
55291;BME280;41155;39.768;2.712;2023-02-21T05:35:57;101841.47;;;8.51;71.00
55291;BME280;41155;39.768;2.712;2023-02-21T05:38:23;101862.53;;;8.68;71.05
55291;BME280;41155;39.768;2.712;2023-02-21T05:40:49;101863.38;;;8.68;70.59
55291;BME280;41155;39.768;2.712;2023-02-21T05:43:15;101817.84;;;8.27;71.06
55291;BME280;41155;39.768;2.712;2023-02-21T05:45:41;101855.53;;;8.60;70.93
55291;BME280;41155;39.768;2.712;2023-02-21T05:48:07;101852.84;;;8.60;70.74
55291;BME280;41155;39.768;2.712;2023-02-21T05:50:34;101828.63;;;8.47;70.62
55291;BME280;41155;39.768;2.712;2023-02-21T05:53:00;101849.31;;;8.66;70.98
55291;BME280;41155;39.768;2.712;2023-02-21T05:55:25;101841.84;;;8.68;70.85
55291;BME280;41155;39.768;2.712;2023-02-21T05:57:52;101809.16;;;8.51;70.98
55291;BME280;41155;39.768;2.712;2023-02-21T06:00:25;101801.88;;;8.65;69.68
55291;BME280;41155;39.768;2.712;2023-02-21T06:02:58;101841.19;;;8.79;70.00
55291;BME280;41155;39.768;2.712;2023-02-21T06:05:30;101836.84;;;8.78;70.37
55291;BME280;41155;39.768;2.712;2023-02-21T06:07:55;101777.28;;;8.42;70.56
55291;BME280;41155;39.768;2.712;2023-02-21T06:10:30;101774.78;;;8.47;70.12
55291;BME280;41155;39.768;2.712;2023-02-21T06:12:55;101838.44;;;8.93;70.19
55291;BME280;41155;39.768;2.712;2023-02-21T06:15:24;101816.97;;;8.79;69.96
55291;BME280;41155;39.768;2.712;2023-02-21T06:17:49;101702.19;;;8.07;69.71
55291;BME280;41155;39.768;2.712;2023-02-21T06:20:28;101664.81;;;7.85;69.46
55291;BME280;41155;39.768;2.712;2023-02-21T06:23:09;101855.81;;;9.03;69.78
55291;BME280;41155;39.768;2.712;2023-02-21T06:25:38;101840.88;;;9.08;69.73
55291;BME280;41155;39.768;2.712;2023-02-21T06:28:03;101857.25;;;9.06;70.09
55291;BME280;41155;39.768;2.712;2023-02-21T06:30:41;101767.53;;;8.54;70.36
55291;BME280;41155;39.768;2.712;2023-02-21T06:33:13;101677.81;;;8.02;70.76
55291;BME280;41155;39.768;2.712;2023-02-21T06:35:38;101808.03;;;8.86;70.59
55291;BME280;41155;39.768;2.712;2023-02-21T06:38:09;101763.13;;;8.66;70.63
55291;BME280;41155;39.768;2.712;2023-02-21T06:40:48;101658.97;;;8.08;70.06
55291;BME280;41155;39.768;2.712;2023-02-21T06:43:32;101725.47;;;8.59;69.46
55291;BME280;41155;39.768;2.712;2023-02-21T06:45:58;101709.16;;;8.48;69.71
55291;BME280;41155;39.768;2.712;2023-02-21T06:48:39;101852.81;;;9.32;70.06
55291;BME280;41155;39.768;2.712;2023-02-21T06:51:13;101669.25;;;8.18;70.32
55291;BME280;41155;39.768;2.712;2023-02-21T06:53:43;101764.75;;;8.80;70.04
55291;BME280;41155;39.768;2.712;2023-02-21T06:56:09;101865.59;;;9.43;69.75
55291;BME280;41155;39.768;2.712;2023-02-21T06:58:53;101744.06;;;8.74;69.32
55291;BME280;41155;39.768;2.712;2023-02-21T07:01:19;101783.00;;;9.17;68.85
55291;BME280;41155;39.768;2.712;2023-02-21T07:03:48;101856.47;;;9.44;69.12
55291;BME280;41155;39.768;2.712;2023-02-21T07:06:14;101828.38;;;9.20;69.54
55291;BME280;41155;39.768;2.712;2023-02-21T07:08:40;101788.44;;;9.10;69.38
55291;BME280;41155;39.768;2.712;2023-02-21T07:11:06;101722.16;;;8.57;69.49
55291;BME280;41155;39.768;2.712;2023-02-21T07:13:32;101758.59;;;8.60;70.11
55291;BME280;41155;39.768;2.712;2023-02-21T07:15:57;101865.19;;;9.46;69.74
55291;BME280;41155;39.768;2.712;2023-02-21T07:18:23;101854.16;;;9.47;69.39
55291;BME280;41155;39.768;2.712;2023-02-21T07:21:01;101663.00;;;8.37;68.82
55291;BME280;41155;39.768;2.712;2023-02-21T07:23:27;101721.31;;;9.02;69.08
55291;BME280;41155;39.768;2.712;2023-02-21T07:25:52;101849.72;;;9.91;68.72
55291;BME280;41155;39.768;2.712;2023-02-21T07:28:18;101857.34;;;10.01;68.80
55291;BME280;41155;39.768;2.712;2023-02-21T07:30:43;101853.09;;;10.12;68.51
55291;BME280;41155;39.768;2.712;2023-02-21T07:33:09;101847.03;;;10.16;68.06
55291;BME280;41155;39.768;2.712;2023-02-21T07:35:34;101862.28;;;10.36;67.50
55291;BME280;41155;39.768;2.712;2023-02-21T07:38:00;101843.38;;;10.36;66.94
55291;BME280;41155;39.768;2.712;2023-02-21T07:40:25;101857.66;;;10.61;66.73
55291;BME280;41155;39.768;2.712;2023-02-21T07:42:51;101852.84;;;10.63;66.16
55291;BME280;41155;39.768;2.712;2023-02-21T07:45:16;101852.84;;;10.45;67.26
55291;BME280;41155;39.768;2.712;2023-02-21T07:47:44;101853.56;;;10.34;66.64
55291;BME280;41155;39.768;2.712;2023-02-21T07:50:15;101855.81;;;10.37;66.75
55291;BME280;41155;39.768;2.712;2023-02-21T07:52:41;101854.03;;;10.49;66.59
55291;BME280;41155;39.768;2.712;2023-02-21T07:55:06;101829.72;;;10.49;66.60
55291;BME280;41155;39.768;2.712;2023-02-21T07:57:32;101831.03;;;10.65;65.77
55291;BME280;41155;39.768;2.712;2023-02-21T07:59:57;101862.41;;;10.84;65.82
55291;BME280;41155;39.768;2.712;2023-02-21T08:02:23;101862.47;;;10.96;65.40
55291;BME280;41155;39.768;2.712;2023-02-21T08:04:50;101855.50;;;11.07;65.28
55291;BME280;41155;39.768;2.712;2023-02-21T08:07:16;101859.69;;;11.21;65.15
55291;BME280;41155;39.768;2.712;2023-02-21T08:09:41;101857.63;;;11.35;64.87
55291;BME280;41155;39.768;2.712;2023-02-21T08:12:07;101858.66;;;11.52;64.24
55291;BME280;41155;39.768;2.712;2023-02-21T08:14:32;101853.50;;;11.63;63.96
55291;BME280;41155;39.768;2.712;2023-02-21T08:16:58;101863.63;;;11.67;64.19
55291;BME280;41155;39.768;2.712;2023-02-21T08:19:23;101841.97;;;11.56;63.79
55291;BME280;41155;39.768;2.712;2023-02-21T08:21:49;101842.56;;;11.58;63.96
55291;BME280;41155;39.768;2.712;2023-02-21T08:24:16;101849.53;;;11.77;63.95
55291;BME280;41155;39.768;2.712;2023-02-21T08:26:42;101860.81;;;11.92;63.86
55291;BME280;41155;39.768;2.712;2023-02-21T08:29:10;101857.88;;;12.06;63.73
55291;BME280;41155;39.768;2.712;2023-02-21T08:31:39;101867.56;;;12.25;63.41
55291;BME280;41155;39.768;2.712;2023-02-21T08:34:06;101861.53;;;12.47;63.36
55291;BME280;41155;39.768;2.712;2023-02-21T08:36:37;101833.75;;;12.51;62.37
55291;BME280;41155;39.768;2.712;2023-02-21T08:39:03;101849.50;;;12.89;61.85
55291;BME280;41155;39.768;2.712;2023-02-21T08:41:45;101840.16;;;12.97;61.79
55291;BME280;41155;39.768;2.712;2023-02-21T08:44:15;101847.31;;;13.15;61.31
55291;BME280;41155;39.768;2.712;2023-02-21T08:46:41;101848.13;;;13.27;60.59
55291;BME280;41155;39.768;2.712;2023-02-21T08:49:08;101848.41;;;13.88;58.85
55291;BME280;41155;39.768;2.712;2023-02-21T08:51:34;101852.03;;;14.61;57.17
55291;BME280;41155;39.768;2.712;2023-02-21T08:54:00;101859.44;;;15.10;55.41
55291;BME280;41155;39.768;2.712;2023-02-21T08:56:29;101829.44;;;15.76;53.20
55291;BME280;41155;39.768;2.712;2023-02-21T08:58:55;101835.13;;;16.07;52.13
55291;BME280;41155;39.768;2.712;2023-02-21T09:01:22;101836.50;;;16.52;50.85
55291;BME280;41155;39.768;2.712;2023-02-21T09:03:48;101834.28;;;16.86;49.90
55291;BME280;41155;39.768;2.712;2023-02-21T09:06:14;101838.28;;;17.41;48.73
55291;BME280;41155;39.768;2.712;2023-02-21T09:08:40;101825.19;;;17.58;46.98
55291;BME280;41155;39.768;2.712;2023-02-21T09:11:06;101822.47;;;17.58;46.14
55291;BME280;41155;39.768;2.712;2023-02-21T09:13:32;101822.38;;;17.17;46.95
55291;BME280;41155;39.768;2.712;2023-02-21T09:15:59;101821.94;;;17.51;45.71
55291;BME280;41155;39.768;2.712;2023-02-21T09:18:25;101797.09;;;17.63;45.86
55291;BME280;41155;39.768;2.712;2023-02-21T09:20:51;101810.53;;;17.85;45.20
55291;BME280;41155;39.768;2.712;2023-02-21T09:23:19;101808.00;;;17.73;45.79
55291;BME280;41155;39.768;2.712;2023-02-21T09:25:45;101772.50;;;17.68;45.26
55291;BME280;41155;39.768;2.712;2023-02-21T09:28:11;101814.03;;;18.26;45.21
55291;BME280;41155;39.768;2.712;2023-02-21T09:30:37;101798.38;;;18.52;45.71
55291;BME280;41155;39.768;2.712;2023-02-21T09:33:02;101816.28;;;18.94;45.13
55291;BME280;41155;39.768;2.712;2023-02-21T09:35:28;101798.44;;;19.12;44.32
55291;BME280;41155;39.768;2.712;2023-02-21T09:37:57;101811.59;;;19.05;44.16
55291;BME280;41155;39.768;2.712;2023-02-21T09:42:55;101804.25;;;19.01;43.74
55291;BME280;41155;39.768;2.712;2023-02-21T09:45:25;101797.31;;;19.13;43.15
55291;BME280;41155;39.768;2.712;2023-02-21T09:47:54;101793.97;;;19.27;42.67
55291;BME280;41155;39.768;2.712;2023-02-21T09:50:26;101793.88;;;19.37;42.37
55291;BME280;41155;39.768;2.712;2023-02-21T09:52:56;101786.41;;;19.53;42.02
55291;BME280;41155;39.768;2.712;2023-02-21T09:55:29;101786.47;;;19.82;41.69
55291;BME280;41155;39.768;2.712;2023-02-21T09:57:56;101770.81;;;20.12;40.57
55291;BME280;41155;39.768;2.712;2023-02-21T10:00:33;101762.78;;;20.44;39.78
55291;BME280;41155;39.768;2.712;2023-02-21T10:03:18;101772.53;;;20.80;39.32
55291;BME280;41155;39.768;2.712;2023-02-21T10:06:53;101759.41;;;21.33;39.24
55291;BME280;41155;39.768;2.712;2023-02-21T10:08:58;101764.47;;;21.78;36.91
55291;BME280;41155;39.768;2.712;2023-02-21T10:14:32;101758.94;;;23.97;31.59
55291;BME280;41155;39.768;2.712;2023-02-21T10:19:41;101751.50;;;26.41;28.37
55291;BME280;41155;39.768;2.712;2023-02-21T10:22:23;101742.88;;;28.14;24.81
55291;BME280;41155;39.768;2.712;2023-02-21T10:24:50;101729.44;;;29.62;22.31
55291;BME280;41155;39.768;2.712;2023-02-21T10:27:19;101722.59;;;30.35;21.42
55291;BME280;41155;39.768;2.712;2023-02-21T10:30:04;101746.47;;;30.20;20.61
55291;BME280;41155;39.768;2.712;2023-02-21T10:32:34;101737.44;;;29.19;20.78
55291;BME280;41155;39.768;2.712;2023-02-21T10:35:01;101736.53;;;28.38;26.65
55291;BME280;41155;39.768;2.712;2023-02-21T10:37:50;101729.94;;;28.30;21.76
55291;BME280;41155;39.768;2.712;2023-02-21T10:40:34;101735.06;;;29.34;20.58
55291;BME280;41155;39.768;2.712;2023-02-21T10:45:44;101703.84;;;30.00;19.96
55291;BME280;41155;39.768;2.712;2023-02-21T10:48:13;101717.34;;;30.49;19.24
55291;BME280;41155;39.768;2.712;2023-02-21T10:50:52;101666.34;;;30.13;18.96
55291;BME280;41155;39.768;2.712;2023-02-21T10:53:39;101716.50;;;29.66;19.71
55291;BME280;41155;39.768;2.712;2023-02-21T10:59:19;101713.00;;;28.72;21.18
55291;BME280;41155;39.768;2.712;2023-02-21T11:01:46;101718.25;;;28.25;21.41
55291;BME280;41155;39.768;2.712;2023-02-21T11:07:07;101703.53;;;27.42;22.53
55291;BME280;41155;39.768;2.712;2023-02-21T11:09:38;101710.41;;;27.02;22.80
55291;BME280;41155;39.768;2.712;2023-02-21T11:12:17;101712.31;;;27.44;22.87
55291;BME280;41155;39.768;2.712;2023-02-21T11:17:25;101686.66;;;28.05;21.09
55291;BME280;41155;39.768;2.712;2023-02-21T11:25:04;101686.06;;;33.16;16.76
55291;BME280;41155;39.768;2.712;2023-02-21T11:27:33;101681.13;;;35.41;14.90
55291;BME280;41155;39.768;2.712;2023-02-21T11:30:02;101679.25;;;37.05;14.27
55291;BME280;41155;39.768;2.712;2023-02-21T11:32:37;101661.25;;;37.99;12.70
55291;BME280;41155;39.768;2.712;2023-02-21T11:37:59;101662.66;;;32.11;16.04
55291;BME280;41155;39.768;2.712;2023-02-21T11:40:26;101664.50;;;32.26;16.79
55291;BME280;41155;39.768;2.712;2023-02-21T11:43:31;101650.06;;;31.94;16.86
55291;BME280;41155;39.768;2.712;2023-02-21T11:46:04;101654.25;;;30.96;18.18
55291;BME280;41155;39.768;2.712;2023-02-21T11:49:00;101639.69;;;29.96;19.11
55291;BME280;41155;39.768;2.712;2023-02-21T11:51:31;101647.91;;;30.60;19.27
55291;BME280;41155;39.768;2.712;2023-02-21T11:53:57;101640.66;;;30.55;19.17
55291;BME280;41155;39.768;2.712;2023-02-21T12:15:00;101643.28;;;28.77;23.65
55291;BME280;41155;39.768;2.712;2023-02-21T12:20:09;101642.69;;;26.91;26.02
55291;BME280;41155;39.768;2.712;2023-02-21T12:22:55;101641.81;;;27.33;25.53
55291;BME280;41155;39.768;2.712;2023-02-21T12:41:30;101635.53;;;31.62;20.55
55291;BME280;41155;39.768;2.712;2023-02-21T12:44:10;101646.72;;;29.90;22.25
55291;BME280;41155;39.768;2.712;2023-02-21T12:50:03;101666.75;;;26.57;26.78
55291;BME280;41155;39.768;2.712;2023-02-21T12:52:14;101671.28;;;26.03;27.71
55291;BME280;41155;39.768;2.712;2023-02-21T12:57:20;101630.34;;;23.70;32.22
55291;BME280;41155;39.768;2.712;2023-02-21T13:05:54;101640.78;;;25.35;29.87
55291;BME280;41155;39.768;2.712;2023-02-21T13:13:39;101627.03;;;25.56;28.62
55291;BME280;41155;39.768;2.712;2023-02-21T13:16:07;101620.94;;;28.09;25.50
55291;BME280;41155;39.768;2.712;2023-02-21T13:18:39;101583.31;;;30.19;23.06
55291;BME280;41155;39.768;2.712;2023-02-21T13:29:26;101585.19;;;34.89;17.40
55291;BME280;41155;39.768;2.712;2023-02-21T13:32:03;101587.06;;;34.53;17.46
55291;BME280;41155;39.768;2.712;2023-02-21T13:34:36;101598.09;;;35.83;15.83
55291;BME280;41155;39.768;2.712;2023-02-21T13:37:06;101603.56;;;36.33;16.15
55291;BME280;41155;39.768;2.712;2023-02-21T13:39:33;101583.66;;;36.87;16.14
55291;BME280;41155;39.768;2.712;2023-02-21T13:42:09;101590.19;;;37.32;15.62
55291;BME280;41155;39.768;2.712;2023-02-21T13:44:41;101596.31;;;36.47;16.58
55291;BME280;41155;39.768;2.712;2023-02-21T13:47:11;101586.34;;;37.05;15.82
55291;BME280;41155;39.768;2.712;2023-02-21T13:49:51;101585.03;;;37.20;16.17
55291;BME280;41155;39.768;2.712;2023-02-21T13:57:34;101565.19;;;35.76;15.60
55291;BME280;41155;39.768;2.712;2023-02-21T14:10:47;101540.66;;;32.86;14.68
55291;BME280;41155;39.768;2.712;2023-02-21T14:13:26;101547.50;;;33.33;15.09
55291;BME280;41155;39.768;2.712;2023-02-21T14:15:58;101555.81;;;32.48;16.35
55291;BME280;41155;39.768;2.712;2023-02-21T14:18:28;101548.72;;;32.57;15.96
55291;BME280;41155;39.768;2.712;2023-02-21T14:20:56;101550.72;;;31.70;15.83
55291;BME280;41155;39.768;2.712;2023-02-21T14:23:49;101537.69;;;31.28;15.77
55291;BME280;41155;39.768;2.712;2023-02-21T14:27:29;101533.41;;;30.69;16.67
55291;BME280;41155;39.768;2.712;2023-02-21T14:29:30;101535.00;;;29.92;17.74
55291;BME280;41155;39.768;2.712;2023-02-21T15:03:16;101533.56;;;23.98;29.23
55291;BME280;41155;39.768;2.712;2023-02-21T15:08:17;101524.44;;;23.71;29.76
55291;BME280;41155;39.768;2.712;2023-02-21T15:10:45;101490.97;;;23.55;30.98
55291;BME280;41155;39.768;2.712;2023-02-21T15:13:27;101487.88;;;23.57;31.22
55291;BME280;41155;39.768;2.712;2023-02-21T15:16:02;101477.41;;;23.28;30.64
55291;BME280;41155;39.768;2.712;2023-02-21T15:18:33;101475.63;;;23.23;29.09
55291;BME280;41155;39.768;2.712;2023-02-21T15:23:44;101474.38;;;22.98;27.64
55291;BME280;41155;39.768;2.712;2023-02-21T15:26:19;101461.25;;;22.95;27.06
55291;BME280;41155;39.768;2.712;2023-02-21T15:29:02;101458.25;;;22.83;28.25
55291;BME280;41155;39.768;2.712;2023-02-21T15:31:31;101447.03;;;22.79;27.89
55291;BME280;41155;39.768;2.712;2023-02-21T15:33:58;101455.75;;;22.50;30.78
55291;BME280;41155;39.768;2.712;2023-02-21T15:36:24;101435.75;;;22.36;31.67
55291;BME280;41155;39.768;2.712;2023-02-21T15:38:55;101462.78;;;22.33;31.89
55291;BME280;41155;39.768;2.712;2023-02-21T15:41:40;101455.00;;;22.13;32.53
55291;BME280;41155;39.768;2.712;2023-02-21T15:44:18;101444.59;;;21.87;32.47
55291;BME280;41155;39.768;2.712;2023-02-21T15:46:49;101458.00;;;21.89;33.81
55291;BME280;41155;39.768;2.712;2023-02-21T15:49:22;101446.75;;;21.63;34.62
55291;BME280;41155;39.768;2.712;2023-02-21T15:51:49;101470.00;;;21.43;35.63
55291;BME280;41155;39.768;2.712;2023-02-21T15:54:22;101480.03;;;21.06;37.53
55291;BME280;41155;39.768;2.712;2023-02-21T15:57:05;101465.25;;;20.74;39.14
55291;BME280;41155;39.768;2.712;2023-02-21T15:59:41;101461.31;;;20.29;41.02
55291;BME280;41155;39.768;2.712;2023-02-21T16:02:20;101475.59;;;20.26;41.82
55291;BME280;41155;39.768;2.712;2023-02-21T16:04:49;101476.94;;;20.09;43.76
55291;BME280;41155;39.768;2.712;2023-02-21T16:07:35;101457.84;;;19.85;45.80
55291;BME280;41155;39.768;2.712;2023-02-21T16:10:07;101480.63;;;19.81;46.31
55291;BME280;41155;39.768;2.712;2023-02-21T16:12:42;101473.97;;;19.87;46.53
55291;BME280;41155;39.768;2.712;2023-02-21T16:17:42;101442.88;;;19.54;46.96
55291;BME280;41155;39.768;2.712;2023-02-21T16:20:18;101475.91;;;19.68;47.60